This is the latest recevied weather packets stored in our database for station/object N5PUP-13. If no packets are shown the sender has not sent any weather packets the latest 10 day(s).
| Time | Temp. | Humidity | Pressure | Rain* | Wind** | Luminosity | Snow |
|---|---|---|---|---|---|---|---|
| 1787771400 | 33.33° C | 45% | 1018.8 hPa | 0 mm | - | - | - |
| 1787771100 | 32.78° C | 49% | 1018.8 hPa | 0 mm | - | - | - |
| 1787770800 | 32.78° C | 47% | 1018.9 hPa | 0 mm | - | - | - |
| 1787770500 | 33.89° C | 43% | 1019 hPa | 0 mm | - | - | - |
| 1787770200 | 32.78° C | 46% | 1019 hPa | 0 mm | - | - | - |
| 1787769900 | 33.33° C | 47% | 1019.1 hPa | 0 mm | - | - | - |
| 1787769600 | 33.89° C | 47% | 1019.1 hPa | 0 mm | - | - | - |
| 1787769300 | 33.89° C | 46% | 1019.3 hPa | 0 mm | - | - | - |
| 1787769000 | 33.33° C | 47% | 1019.3 hPa | 0 mm | - | - | - |
| 1787768700 | 32.78° C | 51% | 1019.4 hPa | 0 mm | - | - | - |
| 1787768400 | 32.78° C | 52% | 1019.4 hPa | 0 mm | - | - | - |
| 1787768100 | 32.78° C | 52% | 1019.5 hPa | 0 mm | - | - | - |
| 1787767800 | 32.22° C | 53% | 1019.5 hPa | 0 mm | - | - | - |
| 1787767500 | 32.22° C | 53% | 1019.7 hPa | 0 mm | - | - | - |
| 1787767200 | 32.22° C | 54% | 1019.8 hPa | 0 mm | - | - | - |
| 1787766900 | 31.67° C | 55% | 1019.8 hPa | 0 mm | - | - | - |
| 1787766600 | 31.11° C | 57% | 1019.8 hPa | 0 mm | - | - | - |
| 1787766300 | 31.67° C | 56% | 1019.9 hPa | 0 mm | - | - | - |
| 1787766000 | 31.67° C | 56% | 1019.8 hPa | 0 mm | - | - | - |
| 1787765700 | 31.11° C | 57% | 1019.8 hPa | 0 mm | - | - | - |
| 1787765401 | 31.67° C | 56% | 1019.8 hPa | 0 mm | - | - | - |
| 1787765100 | 31.11° C | 59% | 1019.9 hPa | 0 mm | - | - | - |
| 1787764800 | 30.56° C | 61% | 1019.9 hPa | 0 mm | - | - | - |
| 1787764500 | 30.56° C | 61% | 1019.9 hPa | 0 mm | - | - | - |
| 1787764200 | 30° C | 64% | 1020.1 hPa | 0 mm | - | - | - |
* Rain latest hour (hover to see other rain measurements)
** Current wind speed in m/s (hover to see current wind gust speed)